sensor_id;sensor_type;location;lat;lon;timestamp;temperature;humidity
64501;DHT22;50874;24.150;-110.320;2023-04-03T00:01:43;29.00;48.40
64501;DHT22;50874;24.150;-110.320;2023-04-03T00:04:10;29.20;48.50
64501;DHT22;50874;24.150;-110.320;2023-04-03T00:06:37;29.30;53.80
64501;DHT22;50874;24.150;-110.320;2023-04-03T00:09:03;29.00;54.50
64501;DHT22;50874;24.150;-110.320;2023-04-03T00:11:30;29.00;54.50
64501;DHT22;50874;24.150;-110.320;2023-04-03T00:13:56;29.00;54.80
64501;DHT22;50874;24.150;-110.320;2023-04-03T00:16:23;28.70;55.50
64501;DHT22;50874;24.150;-110.320;2023-04-03T00:18:49;28.80;56.30
64501;DHT22;50874;24.150;-110.320;2023-04-03T00:21:15;28.60;57.20
64501;DHT22;50874;24.150;-110.320;2023-04-03T00:23:42;28.50;57.80
64501;DHT22;50874;24.150;-110.320;2023-04-03T00:26:09;28.40;58.10
64501;DHT22;50874;24.150;-110.320;2023-04-03T00:28:35;28.30;58.50
64501;DHT22;50874;24.150;-110.320;2023-04-03T00:31:02;28.30;58.70
64501;DHT22;50874;24.150;-110.320;2023-04-03T00:33:28;28.20;58.90
64501;DHT22;50874;24.150;-110.320;2023-04-03T00:35:55;28.30;59.20
64501;DHT22;50874;24.150;-110.320;2023-04-03T00:38:21;28.40;59.20
64501;DHT22;50874;24.150;-110.320;2023-04-03T00:40:49;28.30;58.70
64501;DHT22;50874;24.150;-110.320;2023-04-03T00:43:21;28.40;59.30
64501;DHT22;50874;24.150;-110.320;2023-04-03T00:45:53;28.40;59.60
64501;DHT22;50874;24.150;-110.320;2023-04-03T00:48:29;28.20;60.10
64501;DHT22;50874;24.150;-110.320;2023-04-03T00:50:57;28.00;61.00
64501;DHT22;50874;24.150;-110.320;2023-04-03T00:53:27;28.00;61.70
64501;DHT22;50874;24.150;-110.320;2023-04-03T00:55:56;27.90;61.00
64501;DHT22;50874;24.150;-110.320;2023-04-03T00:58:49;28.00;61.50
64501;DHT22;50874;24.150;-110.320;2023-04-03T01:01:21;27.90;61.50
64501;DHT22;50874;24.150;-110.320;2023-04-03T01:03:48;27.80;62.40
64501;DHT22;50874;24.150;-110.320;2023-04-03T01:06:20;27.70;63.10
64501;DHT22;50874;24.150;-110.320;2023-04-03T01:08:49;27.70;64.00
64501;DHT22;50874;24.150;-110.320;2023-04-03T01:11:16;27.60;64.40
64501;DHT22;50874;24.150;-110.320;2023-04-03T01:13:43;27.60;65.00
64501;DHT22;50874;24.150;-110.320;2023-04-03T01:16:09;27.50;65.60
64501;DHT22;50874;24.150;-110.320;2023-04-03T01:18:38;27.40;65.50
64501;DHT22;50874;24.150;-110.320;2023-04-03T01:23:50;27.00;65.00
64501;DHT22;50874;24.150;-110.320;2023-04-03T01:26:18;27.00;65.30
64501;DHT22;50874;24.150;-110.320;2023-04-03T01:28:45;27.00;67.10
64501;DHT22;50874;24.150;-110.320;2023-04-03T01:31:28;26.90;78.30
64501;DHT22;50874;24.150;-110.320;2023-04-03T01:33:57;26.80;81.00
64501;DHT22;50874;24.150;-110.320;2023-04-03T01:36:27;26.50;83.50
64501;DHT22;50874;24.150;-110.320;2023-04-03T01:38:54;26.40;85.50
64501;DHT22;50874;24.150;-110.320;2023-04-03T01:41:21;26.30;86.10
64501;DHT22;50874;24.150;-110.320;2023-04-03T01:43:49;26.20;88.40
64501;DHT22;50874;24.150;-110.320;2023-04-03T01:46:19;26.10;89.20
64501;DHT22;50874;24.150;-110.320;2023-04-03T01:48:46;26.00;90.10
64501;DHT22;50874;24.150;-110.320;2023-04-03T01:51:13;25.80;90.90
64501;DHT22;50874;24.150;-110.320;2023-04-03T01:53:39;25.60;91.30
64501;DHT22;50874;24.150;-110.320;2023-04-03T01:56:06;25.50;92.10
64501;DHT22;50874;24.150;-110.320;2023-04-03T01:58:33;25.40;92.60
64501;DHT22;50874;24.150;-110.320;2023-04-03T02:00:59;25.40;93.10
64501;DHT22;50874;24.150;-110.320;2023-04-03T02:03:26;25.30;93.40
64501;DHT22;50874;24.150;-110.320;2023-04-03T02:05:52;25.20;94.00
64501;DHT22;50874;24.150;-110.320;2023-04-03T02:08:19;25.10;94.50
64501;DHT22;50874;24.150;-110.320;2023-04-03T02:10:49;25.10;94.90
64501;DHT22;50874;24.150;-110.320;2023-04-03T02:13:16;25.00;95.80
64501;DHT22;50874;24.150;-110.320;2023-04-03T02:15:43;24.90;96.40
64501;DHT22;50874;24.150;-110.320;2023-04-03T02:18:11;24.80;97.30
64501;DHT22;50874;24.150;-110.320;2023-04-03T02:20:38;24.70;98.30
64501;DHT22;50874;24.150;-110.320;2023-04-03T02:23:05;24.60;99.30
64501;DHT22;50874;24.150;-110.320;2023-04-03T02:25:32;24.50;99.90
64501;DHT22;50874;24.150;-110.320;2023-04-03T02:27:58;24.50;99.90
64501;DHT22;50874;24.150;-110.320;2023-04-03T02:30:25;24.40;99.90
64501;DHT22;50874;24.150;-110.320;2023-04-03T02:32:52;24.50;99.90
64501;DHT22;50874;24.150;-110.320;2023-04-03T02:35:19;24.40;99.90
64501;DHT22;50874;24.150;-110.320;2023-04-03T02:37:46;24.50;99.90
64501;DHT22;50874;24.150;-110.320;2023-04-03T02:40:13;24.60;99.90
64501;DHT22;50874;24.150;-110.320;2023-04-03T02:42:39;24.60;99.90
64501;DHT22;50874;24.150;-110.320;2023-04-03T02:45:06;24.60;99.90
64501;DHT22;50874;24.150;-110.320;2023-04-03T02:47:33;24.50;99.90
64501;DHT22;50874;24.150;-110.320;2023-04-03T02:49:59;24.50;99.90
64501;DHT22;50874;24.150;-110.320;2023-04-03T02:52:25;24.40;99.90
64501;DHT22;50874;24.150;-110.320;2023-04-03T02:54:52;24.40;99.90
64501;DHT22;50874;24.150;-110.320;2023-04-03T02:57:18;24.40;99.90
64501;DHT22;50874;24.150;-110.320;2023-04-03T02:59:45;24.40;99.90
64501;DHT22;50874;24.150;-110.320;2023-04-03T03:02:12;24.40;99.90
64501;DHT22;50874;24.150;-110.320;2023-04-03T03:04:38;24.30;99.90
64501;DHT22;50874;24.150;-110.320;2023-04-03T03:07:05;24.30;99.90
64501;DHT22;50874;24.150;-110.320;2023-04-03T03:09:32;24.30;99.90
64501;DHT22;50874;24.150;-110.320;2023-04-03T03:11:59;24.30;99.90
64501;DHT22;50874;24.150;-110.320;2023-04-03T03:14:26;24.30;99.90
64501;DHT22;50874;24.150;-110.320;2023-04-03T03:16:53;24.30;99.90
64501;DHT22;50874;24.150;-110.320;2023-04-03T03:19:21;24.20;99.90
64501;DHT22;50874;24.150;-110.320;2023-04-03T03:21:48;24.20;99.90
64501;DHT22;50874;24.150;-110.320;2023-04-03T03:24:14;24.30;99.90
64501;DHT22;50874;24.150;-110.320;2023-04-03T03:26:42;24.30;99.90
64501;DHT22;50874;24.150;-110.320;2023-04-03T03:29:08;24.20;99.90
64501;DHT22;50874;24.150;-110.320;2023-04-03T03:31:34;24.20;99.90
64501;DHT22;50874;24.150;-110.320;2023-04-03T03:34:01;24.20;99.90
64501;DHT22;50874;24.150;-110.320;2023-04-03T03:36:27;24.10;99.90
64501;DHT22;50874;24.150;-110.320;2023-04-03T03:38:54;24.10;99.90
64501;DHT22;50874;24.150;-110.320;2023-04-03T03:41:20;24.00;99.90
64501;DHT22;50874;24.150;-110.320;2023-04-03T03:43:47;24.00;99.90
64501;DHT22;50874;24.150;-110.320;2023-04-03T03:46:13;24.00;99.90
64501;DHT22;50874;24.150;-110.320;2023-04-03T03:48:40;23.90;99.90
64501;DHT22;50874;24.150;-110.320;2023-04-03T03:51:06;23.80;99.90
64501;DHT22;50874;24.150;-110.320;2023-04-03T03:53:33;23.80;99.90
64501;DHT22;50874;24.150;-110.320;2023-04-03T03:55:59;23.80;99.90
64501;DHT22;50874;24.150;-110.320;2023-04-03T03:58:26;23.70;99.90
64501;DHT22;50874;24.150;-110.320;2023-04-03T04:00:53;23.70;99.90
64501;DHT22;50874;24.150;-110.320;2023-04-03T04:03:19;23.70;99.90
64501;DHT22;50874;24.150;-110.320;2023-04-03T04:05:46;23.60;99.90
64501;DHT22;50874;24.150;-110.320;2023-04-03T04:08:13;23.50;99.90
64501;DHT22;50874;24.150;-110.320;2023-04-03T04:10:39;23.50;99.90
64501;DHT22;50874;24.150;-110.320;2023-04-03T04:13:06;23.50;99.90
64501;DHT22;50874;24.150;-110.320;2023-04-03T04:15:32;23.50;99.90
64501;DHT22;50874;24.150;-110.320;2023-04-03T04:17:59;23.40;99.90
64501;DHT22;50874;24.150;-110.320;2023-04-03T04:20:26;23.40;99.90
64501;DHT22;50874;24.150;-110.320;2023-04-03T04:22:52;23.40;99.90
64501;DHT22;50874;24.150;-110.320;2023-04-03T04:25:19;23.40;99.90
64501;DHT22;50874;24.150;-110.320;2023-04-03T04:27:45;23.40;99.90
64501;DHT22;50874;24.150;-110.320;2023-04-03T04:30:12;23.40;99.90
64501;DHT22;50874;24.150;-110.320;2023-04-03T04:32:39;23.30;99.90
64501;DHT22;50874;24.150;-110.320;2023-04-03T04:35:06;23.30;99.90
64501;DHT22;50874;24.150;-110.320;2023-04-03T04:37:32;23.20;99.90
64501;DHT22;50874;24.150;-110.320;2023-04-03T04:39:59;23.20;99.90
64501;DHT22;50874;24.150;-110.320;2023-04-03T04:42:25;23.10;99.90
64501;DHT22;50874;24.150;-110.320;2023-04-03T04:44:52;23.10;99.90
64501;DHT22;50874;24.150;-110.320;2023-04-03T04:47:18;23.00;99.90
64501;DHT22;50874;24.150;-110.320;2023-04-03T04:49:45;23.00;99.90
64501;DHT22;50874;24.150;-110.320;2023-04-03T04:52:13;23.00;99.90
64501;DHT22;50874;24.150;-110.320;2023-04-03T04:54:40;22.90;99.90
64501;DHT22;50874;24.150;-110.320;2023-04-03T04:57:06;22.90;99.90
64501;DHT22;50874;24.150;-110.320;2023-04-03T04:59:33;22.90;99.90
64501;DHT22;50874;24.150;-110.320;2023-04-03T05:01:59;22.80;99.90
64501;DHT22;50874;24.150;-110.320;2023-04-03T05:04:26;22.70;99.90
64501;DHT22;50874;24.150;-110.320;2023-04-03T05:06:52;22.70;99.90
64501;DHT22;50874;24.150;-110.320;2023-04-03T05:09:19;22.70;99.90
64501;DHT22;50874;24.150;-110.320;2023-04-03T05:11:46;22.70;99.90
64501;DHT22;50874;24.150;-110.320;2023-04-03T05:14:12;22.60;99.90
64501;DHT22;50874;24.150;-110.320;2023-04-03T05:16:39;22.50;99.90
64501;DHT22;50874;24.150;-110.320;2023-04-03T05:19:06;22.50;99.90
64501;DHT22;50874;24.150;-110.320;2023-04-03T05:21:32;22.40;99.90
64501;DHT22;50874;24.150;-110.320;2023-04-03T05:23:59;22.30;99.90
64501;DHT22;50874;24.150;-110.320;2023-04-03T05:26:31;22.30;99.90
64501;DHT22;50874;24.150;-110.320;2023-04-03T05:28:58;22.20;99.90
64501;DHT22;50874;24.150;-110.320;2023-04-03T05:31:24;22.20;99.90
64501;DHT22;50874;24.150;-110.320;2023-04-03T05:33:51;22.10;99.90
64501;DHT22;50874;24.150;-110.320;2023-04-03T05:36:18;22.00;99.30
64501;DHT22;50874;24.150;-110.320;2023-04-03T05:38:45;21.80;97.50
64501;DHT22;50874;24.150;-110.320;2023-04-03T05:41:11;21.80;98.10
64501;DHT22;50874;24.150;-110.320;2023-04-03T05:43:38;21.70;96.90
64501;DHT22;50874;24.150;-110.320;2023-04-03T05:46:10;21.60;95.00
64501;DHT22;50874;24.150;-110.320;2023-04-03T05:48:37;21.60;95.10
64501;DHT22;50874;24.150;-110.320;2023-04-03T05:51:04;21.50;95.50
64501;DHT22;50874;24.150;-110.320;2023-04-03T05:53:35;21.50;96.00
64501;DHT22;50874;24.150;-110.320;2023-04-03T05:56:03;21.50;96.20
64501;DHT22;50874;24.150;-110.320;2023-04-03T05:58:30;21.40;96.90
64501;DHT22;50874;24.150;-110.320;2023-04-03T06:00:57;21.40;97.30
64501;DHT22;50874;24.150;-110.320;2023-04-03T06:03:23;21.50;99.50
64501;DHT22;50874;24.150;-110.320;2023-04-03T06:05:50;21.50;99.70
64501;DHT22;50874;24.150;-110.320;2023-04-03T06:08:16;21.30;93.50
64501;DHT22;50874;24.150;-110.320;2023-04-03T06:10:43;21.30;92.70
64501;DHT22;50874;24.150;-110.320;2023-04-03T06:13:09;21.30;92.60
64501;DHT22;50874;24.150;-110.320;2023-04-03T06:15:36;21.30;92.40
64501;DHT22;50874;24.150;-110.320;2023-04-03T06:18:02;21.30;91.50
64501;DHT22;50874;24.150;-110.320;2023-04-03T06:20:29;21.30;91.30
64501;DHT22;50874;24.150;-110.320;2023-04-03T06:22:57;21.30;91.30
64501;DHT22;50874;24.150;-110.320;2023-04-03T06:25:23;21.30;91.10
64501;DHT22;50874;24.150;-110.320;2023-04-03T06:27:50;21.30;91.00
64501;DHT22;50874;24.150;-110.320;2023-04-03T06:30:17;21.20;90.90
64501;DHT22;50874;24.150;-110.320;2023-04-03T06:32:43;21.20;90.30
64501;DHT22;50874;24.150;-110.320;2023-04-03T06:35:10;21.20;90.10
64501;DHT22;50874;24.150;-110.320;2023-04-03T06:37:37;21.20;89.60
64501;DHT22;50874;24.150;-110.320;2023-04-03T06:40:04;21.20;89.20
64501;DHT22;50874;24.150;-110.320;2023-04-03T06:42:31;21.20;89.40
64501;DHT22;50874;24.150;-110.320;2023-04-03T06:45:00;21.20;90.00
64501;DHT22;50874;24.150;-110.320;2023-04-03T06:47:26;21.10;89.80
64501;DHT22;50874;24.150;-110.320;2023-04-03T06:49:53;21.00;88.40
64501;DHT22;50874;24.150;-110.320;2023-04-03T06:52:19;21.00;86.70
64501;DHT22;50874;24.150;-110.320;2023-04-03T06:54:46;20.90;86.80
64501;DHT22;50874;24.150;-110.320;2023-04-03T06:57:13;20.80;87.30
64501;DHT22;50874;24.150;-110.320;2023-04-03T06:59:40;20.80;88.10
64501;DHT22;50874;24.150;-110.320;2023-04-03T07:02:08;20.80;88.80
64501;DHT22;50874;24.150;-110.320;2023-04-03T07:04:35;20.80;88.80
64501;DHT22;50874;24.150;-110.320;2023-04-03T07:07:02;20.80;89.20
64501;DHT22;50874;24.150;-110.320;2023-04-03T07:09:28;20.80;90.00
64501;DHT22;50874;24.150;-110.320;2023-04-03T07:11:57;20.70;90.10
64501;DHT22;50874;24.150;-110.320;2023-04-03T07:14:23;20.60;90.70
64501;DHT22;50874;24.150;-110.320;2023-04-03T07:16:50;20.60;91.10
64501;DHT22;50874;24.150;-110.320;2023-04-03T07:19:17;20.50;91.40
64501;DHT22;50874;24.150;-110.320;2023-04-03T07:21:44;20.50;91.70
64501;DHT22;50874;24.150;-110.320;2023-04-03T07:24:11;20.40;92.20
64501;DHT22;50874;24.150;-110.320;2023-04-03T07:26:40;20.40;92.00
64501;DHT22;50874;24.150;-110.320;2023-04-03T07:29:07;20.40;92.40
64501;DHT22;50874;24.150;-110.320;2023-04-03T07:31:33;20.30;92.10
64501;DHT22;50874;24.150;-110.320;2023-04-03T07:34:00;20.30;91.90
64501;DHT22;50874;24.150;-110.320;2023-04-03T07:36:26;20.30;92.00
64501;DHT22;50874;24.150;-110.320;2023-04-03T07:38:53;20.30;92.20
64501;DHT22;50874;24.150;-110.320;2023-04-03T07:41:20;20.20;90.90
64501;DHT22;50874;24.150;-110.320;2023-04-03T07:43:48;20.20;89.10
64501;DHT22;50874;24.150;-110.320;2023-04-03T07:46:16;20.10;86.20
64501;DHT22;50874;24.150;-110.320;2023-04-03T07:48:43;20.00;86.00
64501;DHT22;50874;24.150;-110.320;2023-04-03T07:51:09;20.00;86.20
64501;DHT22;50874;24.150;-110.320;2023-04-03T07:53:36;20.00;86.10
64501;DHT22;50874;24.150;-110.320;2023-04-03T07:56:03;19.90;85.70
64501;DHT22;50874;24.150;-110.320;2023-04-03T07:58:29;19.90;85.60
64501;DHT22;50874;24.150;-110.320;2023-04-03T08:00:56;19.90;86.10
64501;DHT22;50874;24.150;-110.320;2023-04-03T08:03:23;19.90;86.30
64501;DHT22;50874;24.150;-110.320;2023-04-03T08:05:49;19.80;86.20
64501;DHT22;50874;24.150;-110.320;2023-04-03T08:08:19;19.80;86.50
64501;DHT22;50874;24.150;-110.320;2023-04-03T08:10:50;19.80;86.90
64501;DHT22;50874;24.150;-110.320;2023-04-03T08:13:17;19.90;87.30
64501;DHT22;50874;24.150;-110.320;2023-04-03T08:15:44;20.00;86.50
64501;DHT22;50874;24.150;-110.320;2023-04-03T08:18:11;20.10;85.50
64501;DHT22;50874;24.150;-110.320;2023-04-03T08:20:38;20.20;83.40
64501;DHT22;50874;24.150;-110.320;2023-04-03T08:23:07;20.30;82.80
64501;DHT22;50874;24.150;-110.320;2023-04-03T08:25:38;20.40;83.10
64501;DHT22;50874;24.150;-110.320;2023-04-03T08:28:04;20.60;83.00
64501;DHT22;50874;24.150;-110.320;2023-04-03T08:30:31;20.70;81.70
64501;DHT22;50874;24.150;-110.320;2023-04-03T08:32:59;20.80;80.50
64501;DHT22;50874;24.150;-110.320;2023-04-03T08:35:26;20.80;80.10
64501;DHT22;50874;24.150;-110.320;2023-04-03T08:37:52;20.80;78.90
64501;DHT22;50874;24.150;-110.320;2023-04-03T08:40:19;20.80;78.20
64501;DHT22;50874;24.150;-110.320;2023-04-03T08:43:34;20.80;77.40
64501;DHT22;50874;24.150;-110.320;2023-04-03T08:46:05;20.80;77.00
64501;DHT22;50874;24.150;-110.320;2023-04-03T08:48:41;20.80;76.90
64501;DHT22;50874;24.150;-110.320;2023-04-03T08:51:20;20.80;77.00
64501;DHT22;50874;24.150;-110.320;2023-04-03T08:54:09;20.90;78.00
64501;DHT22;50874;24.150;-110.320;2023-04-03T08:56:39;20.90;78.30
64501;DHT22;50874;24.150;-110.320;2023-04-03T08:59:24;21.00;77.90
64501;DHT22;50874;24.150;-110.320;2023-04-03T09:01:52;21.00;76.50
64501;DHT22;50874;24.150;-110.320;2023-04-03T09:04:19;21.00;75.90
64501;DHT22;50874;24.150;-110.320;2023-04-03T09:06:50;21.00;75.40
64501;DHT22;50874;24.150;-110.320;2023-04-03T09:09:31;21.10;74.70
64501;DHT22;50874;24.150;-110.320;2023-04-03T09:15:11;21.10;74.00
64501;DHT22;50874;24.150;-110.320;2023-04-03T09:20:49;21.20;74.40
64501;DHT22;50874;24.150;-110.320;2023-04-03T09:23:40;21.20;73.90
64501;DHT22;50874;24.150;-110.320;2023-04-03T09:29:02;21.30;73.90
64501;DHT22;50874;24.150;-110.320;2023-04-03T09:31:39;21.40;74.20
64501;DHT22;50874;24.150;-110.320;2023-04-03T09:34:15;21.40;74.40
64501;DHT22;50874;24.150;-110.320;2023-04-03T09:36:58;21.40;75.00
64501;DHT22;50874;24.150;-110.320;2023-04-03T09:39:27;21.50;75.00
64501;DHT22;50874;24.150;-110.320;2023-04-03T09:41:59;21.50;75.00
64501;DHT22;50874;24.150;-110.320;2023-04-03T09:46:56;21.50;75.10
64501;DHT22;50874;24.150;-110.320;2023-04-03T09:49:23;21.40;75.00
64501;DHT22;50874;24.150;-110.320;2023-04-03T09:51:50;21.40;75.20
64501;DHT22;50874;24.150;-110.320;2023-04-03T09:56:54;21.20;75.70
64501;DHT22;50874;24.150;-110.320;2023-04-03T09:59:21;21.20;76.10
64501;DHT22;50874;24.150;-110.320;2023-04-03T10:04:25;21.10;76.50
64501;DHT22;50874;24.150;-110.320;2023-04-03T10:07:02;21.00;76.70
64501;DHT22;50874;24.150;-110.320;2023-04-03T10:09:30;20.90;77.00
64501;DHT22;50874;24.150;-110.320;2023-04-03T10:12:04;20.90;76.80
64501;DHT22;50874;24.150;-110.320;2023-04-03T10:23:14;20.60;78.30
64501;DHT22;50874;24.150;-110.320;2023-04-03T10:26:07;20.60;78.50
64501;DHT22;50874;24.150;-110.320;2023-04-03T10:29:01;20.50;78.50
64501;DHT22;50874;24.150;-110.320;2023-04-03T10:31:43;20.50;78.50
64501;DHT22;50874;24.150;-110.320;2023-04-03T10:34:31;20.40;77.80
64501;DHT22;50874;24.150;-110.320;2023-04-03T10:48:39;19.90;77.70
64501;DHT22;50874;24.150;-110.320;2023-04-03T10:51:29;19.80;77.50
64501;DHT22;50874;24.150;-110.320;2023-04-03T10:54:05;19.60;77.40
64501;DHT22;50874;24.150;-110.320;2023-04-03T10:56:41;19.50;77.60
64501;DHT22;50874;24.150;-110.320;2023-04-03T10:59:33;19.40;77.50
64501;DHT22;50874;24.150;-110.320;2023-04-03T11:02:28;19.30;77.00
64501;DHT22;50874;24.150;-110.320;2023-04-03T11:05:25;19.20;77.10
64501;DHT22;50874;24.150;-110.320;2023-04-03T11:07:50;19.20;77.20
64501;DHT22;50874;24.150;-110.320;2023-04-03T11:10:23;19.10;77.30
64501;DHT22;50874;24.150;-110.320;2023-04-03T11:15:39;19.00;78.10
64501;DHT22;50874;24.150;-110.320;2023-04-03T11:18:13;18.90;78.30
64501;DHT22;50874;24.150;-110.320;2023-04-03T11:21:00;18.90;78.60
64501;DHT22;50874;24.150;-110.320;2023-04-03T11:23:36;18.90;78.50
64501;DHT22;50874;24.150;-110.320;2023-04-03T11:26:12;18.90;78.60
64501;DHT22;50874;24.150;-110.320;2023-04-03T11:28:39;18.80;78.10
64501;DHT22;50874;24.150;-110.320;2023-04-03T11:33:42;18.70;77.30
64501;DHT22;50874;24.150;-110.320;2023-04-03T11:36:26;18.70;77.30
64501;DHT22;50874;24.150;-110.320;2023-04-03T11:39:07;18.70;77.50
64501;DHT22;50874;24.150;-110.320;2023-04-03T11:41:36;18.70;77.50
64501;DHT22;50874;24.150;-110.320;2023-04-03T11:44:33;18.70;77.60
64501;DHT22;50874;24.150;-110.320;2023-04-03T11:47:00;18.70;77.70
64501;DHT22;50874;24.150;-110.320;2023-04-03T12:14:01;18.50;77.00
64501;DHT22;50874;24.150;-110.320;2023-04-03T12:18:59;18.80;75.60
64501;DHT22;50874;24.150;-110.320;2023-04-03T12:29:34;18.70;75.50
64501;DHT22;50874;24.150;-110.320;2023-04-03T12:51:26;18.10;76.40
64501;DHT22;50874;24.150;-110.320;2023-04-03T12:54:04;18.10;76.80
64501;DHT22;50874;24.150;-110.320;2023-04-03T12:56:39;18.00;76.30
64501;DHT22;50874;24.150;-110.320;2023-04-03T12:59:25;17.90;76.00
64501;DHT22;50874;24.150;-110.320;2023-04-03T13:01:57;17.90;75.70
64501;DHT22;50874;24.150;-110.320;2023-04-03T13:04:25;17.90;75.90
64501;DHT22;50874;24.150;-110.320;2023-04-03T13:06:53;17.80;76.70
64501;DHT22;50874;24.150;-110.320;2023-04-03T13:09:25;17.70;77.50
64501;DHT22;50874;24.150;-110.320;2023-04-03T13:12:11;17.70;78.10
64501;DHT22;50874;24.150;-110.320;2023-04-03T13:14:38;17.60;78.30
64501;DHT22;50874;24.150;-110.320;2023-04-03T13:17:12;17.60;77.80
64501;DHT22;50874;24.150;-110.320;2023-04-03T13:19:39;17.60;78.70
64501;DHT22;50874;24.150;-110.320;2023-04-03T13:25:27;17.60;78.80
64501;DHT22;50874;24.150;-110.320;2023-04-03T13:27:55;17.60;78.60
64501;DHT22;50874;24.150;-110.320;2023-04-03T13:30:32;17.60;78.00
64501;DHT22;50874;24.150;-110.320;2023-04-03T13:33:02;17.70;76.90
64501;DHT22;50874;24.150;-110.320;2023-04-03T13:35:31;17.80;76.60
64501;DHT22;50874;24.150;-110.320;2023-04-03T13:38:21;17.90;74.50
64501;DHT22;50874;24.150;-110.320;2023-04-03T13:40:51;18.00;74.00
64501;DHT22;50874;24.150;-110.320;2023-04-03T13:43:24;18.20;74.20
64501;DHT22;50874;24.150;-110.320;2023-04-03T13:48:47;18.60;72.90
64501;DHT22;50874;24.150;-110.320;2023-04-03T13:51:17;18.90;71.50
64501;DHT22;50874;24.150;-110.320;2023-04-03T13:53:46;19.10;71.80
64501;DHT22;50874;24.150;-110.320;2023-04-03T13:56:27;19.30;71.00
64501;DHT22;50874;24.150;-110.320;2023-04-03T14:04:44;20.50;66.20
64501;DHT22;50874;24.150;-110.320;2023-04-03T14:07:15;20.90;65.20
64501;DHT22;50874;24.150;-110.320;2023-04-03T14:09:43;21.20;64.90
64501;DHT22;50874;24.150;-110.320;2023-04-03T14:12:31;21.30;64.40
64501;DHT22;50874;24.150;-110.320;2023-04-03T14:15:01;21.50;63.90
64501;DHT22;50874;24.150;-110.320;2023-04-03T14:17:29;21.80;63.10
64501;DHT22;50874;24.150;-110.320;2023-04-03T14:19:57;22.10;61.90
64501;DHT22;50874;24.150;-110.320;2023-04-03T14:22:27;22.60;61.20
64501;DHT22;50874;24.150;-110.320;2023-04-03T14:24:55;23.10;61.30
64501;DHT22;50874;24.150;-110.320;2023-04-03T14:27:34;23.70;60.40
64501;DHT22;50874;24.150;-110.320;2023-04-03T14:30:02;24.10;59.30
64501;DHT22;50874;24.150;-110.320;2023-04-03T14:32:29;24.60;58.60
64501;DHT22;50874;24.150;-110.320;2023-04-03T14:34:56;24.90;58.10
64501;DHT22;50874;24.150;-110.320;2023-04-03T14:37:26;25.20;57.50
64501;DHT22;50874;24.150;-110.320;2023-04-03T14:39:54;25.40;56.90
64501;DHT22;50874;24.150;-110.320;2023-04-03T14:42:24;25.70;56.20
64501;DHT22;50874;24.150;-110.320;2023-04-03T14:44:52;25.90;56.00
64501;DHT22;50874;24.150;-110.320;2023-04-03T14:47:25;26.00;55.40
64501;DHT22;50874;24.150;-110.320;2023-04-03T14:49:53;26.20;55.30
64501;DHT22;50874;24.150;-110.320;2023-04-03T14:52:31;26.10;54.80
64501;DHT22;50874;24.150;-110.320;2023-04-03T14:54:59;26.20;54.90
64501;DHT22;50874;24.150;-110.320;2023-04-03T14:57:28;26.40;55.40
64501;DHT22;50874;24.150;-110.320;2023-04-03T14:59:55;26.50;54.50
64501;DHT22;50874;24.150;-110.320;2023-04-03T15:02:38;27.00;54.70
64501;DHT22;50874;24.150;-110.320;2023-04-03T15:05:08;27.60;54.50
64501;DHT22;50874;24.150;-110.320;2023-04-03T15:07:41;27.80;53.90
64501;DHT22;50874;24.150;-110.320;2023-04-03T15:10:22;28.30;52.90
64501;DHT22;50874;24.150;-110.320;2023-04-03T15:12:50;28.50;52.40
64501;DHT22;50874;24.150;-110.320;2023-04-03T15:15:18;28.30;51.40
64501;DHT22;50874;24.150;-110.320;2023-04-03T15:17:47;28.50;51.60
64501;DHT22;50874;24.150;-110.320;2023-04-03T15:20:18;28.90;51.60
64501;DHT22;50874;24.150;-110.320;2023-04-03T15:22:45;29.30;51.10
64501;DHT22;50874;24.150;-110.320;2023-04-03T15:25:12;29.10;50.70
64501;DHT22;50874;24.150;-110.320;2023-04-03T15:27:40;29.00;51.00
64501;DHT22;50874;24.150;-110.320;2023-04-03T15:30:10;29.10;50.70
64501;DHT22;50874;24.150;-110.320;2023-04-03T15:32:37;29.40;50.20
64501;DHT22;50874;24.150;-110.320;2023-04-03T15:35:04;29.40;50.30
64501;DHT22;50874;24.150;-110.320;2023-04-03T15:37:30;29.80;50.30
64501;DHT22;50874;24.150;-110.320;2023-04-03T15:39:57;29.90;49.60
64501;DHT22;50874;24.150;-110.320;2023-04-03T15:42:23;30.10;49.20
64501;DHT22;50874;24.150;-110.320;2023-04-03T15:44:50;30.20;48.30
64501;DHT22;50874;24.150;-110.320;2023-04-03T15:47:17;30.10;47.90
64501;DHT22;50874;24.150;-110.320;2023-04-03T15:49:43;30.50;48.10
64501;DHT22;50874;24.150;-110.320;2023-04-03T15:52:10;30.60;47.60
64501;DHT22;50874;24.150;-110.320;2023-04-03T15:54:36;30.60;46.50
64501;DHT22;50874;24.150;-110.320;2023-04-03T15:57:02;30.70;46.20
64501;DHT22;50874;24.150;-110.320;2023-04-03T15:59:29;30.70;45.40
64501;DHT22;50874;24.150;-110.320;2023-04-03T16:01:59;30.80;45.00
64501;DHT22;50874;24.150;-110.320;2023-04-03T16:04:28;31.10;44.60
64501;DHT22;50874;24.150;-110.320;2023-04-03T16:06:54;31.60;43.90
64501;DHT22;50874;24.150;-110.320;2023-04-03T16:09:21;31.70;43.50
64501;DHT22;50874;24.150;-110.320;2023-04-03T16:11:48;31.70;43.40
64501;DHT22;50874;24.150;-110.320;2023-04-03T16:14:14;31.70;43.20
64501;DHT22;50874;24.150;-110.320;2023-04-03T16:16:41;32.10;43.70
64501;DHT22;50874;24.150;-110.320;2023-04-03T16:19:07;32.40;42.40
64501;DHT22;50874;24.150;-110.320;2023-04-03T16:21:35;32.50;42.00
64501;DHT22;50874;24.150;-110.320;2023-04-03T16:24:02;32.60;42.00
64501;DHT22;50874;24.150;-110.320;2023-04-03T16:26:28;32.70;41.60
64501;DHT22;50874;24.150;-110.320;2023-04-03T16:28:55;33.00;42.60
64501;DHT22;50874;24.150;-110.320;2023-04-03T16:31:22;33.00;42.20
64501;DHT22;50874;24.150;-110.320;2023-04-03T16:33:49;33.10;42.40
64501;DHT22;50874;24.150;-110.320;2023-04-03T16:36:16;33.20;42.60
64501;DHT22;50874;24.150;-110.320;2023-04-03T16:38:42;33.60;42.40
64501;DHT22;50874;24.150;-110.320;2023-04-03T16:41:09;33.80;42.90
64501;DHT22;50874;24.150;-110.320;2023-04-03T16:43:35;34.00;43.10
64501;DHT22;50874;24.150;-110.320;2023-04-03T16:46:03;34.40;42.30
64501;DHT22;50874;24.150;-110.320;2023-04-03T16:48:30;34.30;42.90
64501;DHT22;50874;24.150;-110.320;2023-04-03T16:50:56;34.30;42.60
64501;DHT22;50874;24.150;-110.320;2023-04-03T16:53:24;34.30;43.00